PWSweather.com
Personal Weather Stations
Station Observations
W8ITC
Casco, MI 48064

Casco, MI 48064

Lat: 42.7666512, Lon: -82.6875098

Elevation: 629

Station Type: Lacrosse 2310

http://www.w8itc.com/weather/

Latest ConditionsUpdated 3:50:07 AM EST Sunday, Feb 18, 2018
Currently Today's Max Today's Min Today's Average
Temperature 28.2°F-2.1°C 29.1°F-1.6°C 23.2°F-4.9°C 26.3°F-3.2°C
Dew Point 26.2°F-3.2°C 26.5°F-3.1°C 20.7°F-6.3°C 24.0°F-4.4°C
Winds Calm Calm Calm NWCalm NW - Calm Calm
Wind Gusts 107.1 mph172.4 kmh 107.1 mph172.4 kmh - -
Humidity 92% 92% 90% 91%
Pressure 30.38 in1028.8 mb 30.38 in1028.8 mb 30.26 in1024.7 mb -
Hour Temp Dew Point Humidity Winds Wind Gusts Pressure Precip Precip Rate Daily Precip Total
03:50 AM 28.2°F-2.1°C 26.2°F-3.2°C 92% Calm Calm 107.1 mph172.4 kmh 30.38 in1028.8 mb 0.00 in0.0 mm 0.00 in0.0 mm 0.00 in0.0 mm
03:40 AM 28.0°F-2.2°C 26.0°F-3.3°C 92% Calm Calm 107.1 mph172.4 kmh 30.38 in1028.8 mb 0.00 in0.0 mm 0.00 in0.0 mm 0.00 in0.0 mm
03:30 AM 27.7°F-2.4°C 25.7°F-3.5°C 92% Calm Calm 107.1 mph172.4 kmh 30.38 in1028.8 mb 0.00 in0.0 mm 0.00 in0.0 mm 0.00 in0.0 mm
03:20 AM 27.5°F-2.5°C 25.5°F-3.6°C 92% Calm Calm 107.1 mph172.4 kmh 30.38 in1028.8 mb 0.00 in0.0 mm 0.00 in0.0 mm 0.00 in0.0 mm
03:10 AM 27.3°F-2.6°C 25.3°F-3.7°C 92% Calm Calm 107.1 mph172.4 kmh 30.37 in1028.4 mb 0.00 in0.0 mm 0.00 in0.0 mm 0.00 in0.0 mm
03:00 AM 27.1°F-2.7°C 25.1°F-3.8°C 92% Calm Calm 107.1 mph172.4 kmh 30.35 in1027.8 mb 0.00 in0.0 mm 0.00 in0.0 mm 0.00 in0.0 mm
02:50 AM 26.8°F-2.9°C 24.8°F-4.0°C 92% Calm Calm 107.1 mph172.4 kmh 30.35 in1027.8 mb 0.00 in0.0 mm 0.00 in0.0 mm 0.00 in0.0 mm
02:40 AM 26.4°F-3.1°C 24.4°F-4.2°C 92% Calm Calm 107.1 mph172.4 kmh 30.34 in1027.4 mb 0.00 in0.0 mm 0.00 in0.0 mm 0.00 in0.0 mm
02:30 AM 26.2°F-3.2°C 23.9°F-4.5°C 91% Calm Calm 107.1 mph172.4 kmh 30.34 in1027.4 mb 0.00 in0.0 mm 0.00 in0.0 mm 0.00 in0.0 mm
02:20 AM 25.9°F-3.4°C 23.6°F-4.7°C 91% Calm Calm 107.1 mph172.4 kmh 30.34 in1027.4 mb 0.00 in0.0 mm 0.00 in0.0 mm 0.00 in0.0 mm
02:10 AM 25.5°F-3.6°C 23.2°F-4.9°C 91% Calm Calm 107.1 mph172.4 kmh 30.33 in1027.1 mb 0.00 in0.0 mm 0.00 in0.0 mm 0.00 in0.0 mm
02:00 AM 25.0°F-3.9°C 22.8°F-5.1°C 91% Calm Calm 107.1 mph172.4 kmh 30.33 in1027.1 mb 0.00 in0.0 mm 0.00 in0.0 mm 0.00 in0.0 mm
01:50 AM 23.5°F-4.7°C 21.0°F-6.1°C 90% Calm Calm 107.1 mph172.4 kmh 30.32 in1026.8 mb 0.00 in0.0 mm 0.00 in0.0 mm 0.00 in0.0 mm
01:40 AM 23.2°F-4.9°C 20.7°F-6.3°C 90% Calm Calm 107.1 mph172.4 kmh 30.31 in1026.4 mb 0.00 in0.0 mm 0.00 in0.0 mm 0.00 in0.0 mm
01:30 AM 23.4°F-4.8°C 20.9°F-6.2°C 90% Calm Calm 107.1 mph172.4 kmh 30.30 in1026.1 mb 0.00 in0.0 mm 0.00 in0.0 mm 0.00 in0.0 mm
01:20 AM 23.7°F-4.6°C 21.2°F-6.0°C 90% Calm Calm 107.1 mph172.4 kmh 30.29 in1025.7 mb 0.00 in0.0 mm 0.00 in0.0 mm 0.00 in0.0 mm
01:10 AM 24.4°F-4.2°C 21.9°F-5.6°C 90% Calm Calm 107.1 mph172.4 kmh 30.28 in1025.4 mb 0.00 in0.0 mm 0.00 in0.0 mm 0.00 in0.0 mm
01:00 AM 25.2°F-3.8°C 22.7°F-5.2°C 90% Calm Calm 107.1 mph172.4 kmh 30.29 in1025.7 mb 0.00 in0.0 mm 0.00 in0.0 mm 0.00 in0.0 mm
12:50 AM 26.1°F-3.3°C 23.6°F-4.7°C 90% Calm Calm 107.1 mph172.4 kmh 30.29 in1025.7 mb 0.00 in0.0 mm 0.00 in0.0 mm 0.00 in0.0 mm
12:40 AM 26.8°F-2.9°C 24.3°F-4.3°C 90% Calm Calm 107.1 mph172.4 kmh 30.28 in1025.4 mb 0.00 in0.0 mm 0.00 in0.0 mm 0.00 in0.0 mm
12:30 AM 27.3°F-2.6°C 24.8°F-4.0°C 90% Calm Calm 107.1 mph172.4 kmh 30.27 in1025.1 mb 0.00 in0.0 mm 0.00 in0.0 mm 0.00 in0.0 mm
12:20 AM 28.0°F-2.2°C 25.5°F-3.6°C 90% Calm Calm 107.1 mph172.4 kmh 30.27 in1025.1 mb 0.00 in0.0 mm 0.00 in0.0 mm 0.00 in0.0 mm
12:10 AM 28.6°F-1.9°C 26.1°F-3.3°C 90% Calm Calm 107.1 mph172.4 kmh 30.27 in1025.1 mb 0.00 in0.0 mm 0.00 in0.0 mm 0.00 in0.0 mm
12:00 AM 29.1°F-1.6°C 26.5°F-3.1°C 90% Calm Calm 107.1 mph172.4 kmh 30.26 in1024.7 mb 0.00 in0.0 mm 0.00 in0.0 mm 0.00 in0.0 mm